sensor_id;sensor_type;location;lat;lon;timestamp;temperature;humidity
8994;DHT22;4532;50.886;4.700;2022-08-18T00:02:13;22.20;97.40
8994;DHT22;4532;50.886;4.700;2022-08-18T00:04:41;22.20;97.50
8994;DHT22;4532;50.886;4.700;2022-08-18T00:07:23;22.10;97.50
8994;DHT22;4532;50.886;4.700;2022-08-18T00:09:56;22.10;97.60
8994;DHT22;4532;50.886;4.700;2022-08-18T00:12:34;22.10;97.60
8994;DHT22;4532;50.886;4.700;2022-08-18T00:15:10;22.10;97.70
8994;DHT22;4532;50.886;4.700;2022-08-18T00:17:38;22.10;97.60
8994;DHT22;4532;50.886;4.700;2022-08-18T00:20:09;22.00;97.60
8994;DHT22;4532;50.886;4.700;2022-08-18T00:22:39;22.00;97.60
8994;DHT22;4532;50.886;4.700;2022-08-18T00:25:08;22.00;97.70
8994;DHT22;4532;50.886;4.700;2022-08-18T00:27:43;22.00;97.70
8994;DHT22;4532;50.886;4.700;2022-08-18T00:30:16;22.00;97.70
8994;DHT22;4532;50.886;4.700;2022-08-18T00:32:54;21.90;97.80
8994;DHT22;4532;50.886;4.700;2022-08-18T00:35:30;21.90;97.90
8994;DHT22;4532;50.886;4.700;2022-08-18T00:38:04;21.90;97.90
8994;DHT22;4532;50.886;4.700;2022-08-18T00:40:43;21.90;97.80
8994;DHT22;4532;50.886;4.700;2022-08-18T00:43:22;21.90;98.00
8994;DHT22;4532;50.886;4.700;2022-08-18T00:45:50;21.80;97.90
8994;DHT22;4532;50.886;4.700;2022-08-18T00:48:22;21.80;97.90
8994;DHT22;4532;50.886;4.700;2022-08-18T00:50:57;21.80;97.90
8994;DHT22;4532;50.886;4.700;2022-08-18T00:53:33;21.80;98.00
8994;DHT22;4532;50.886;4.700;2022-08-18T00:56:12;21.90;97.80
8994;DHT22;4532;50.886;4.700;2022-08-18T00:58:50;21.90;97.90
8994;DHT22;4532;50.886;4.700;2022-08-18T01:01:20;21.90;98.00
8994;DHT22;4532;50.886;4.700;2022-08-18T01:04:08;21.90;98.10
8994;DHT22;4532;50.886;4.700;2022-08-18T01:06:42;21.90;98.20
8994;DHT22;4532;50.886;4.700;2022-08-18T01:09:15;21.90;98.20
8994;DHT22;4532;50.886;4.700;2022-08-18T01:11:44;22.00;98.10
8994;DHT22;4532;50.886;4.700;2022-08-18T01:14:12;22.00;98.20
8994;DHT22;4532;50.886;4.700;2022-08-18T01:16:44;22.00;98.40
8994;DHT22;4532;50.886;4.700;2022-08-18T01:19:30;22.10;98.20
8994;DHT22;4532;50.886;4.700;2022-08-18T01:22:25;22.00;98.30
8994;DHT22;4532;50.886;4.700;2022-08-18T01:24:57;22.00;98.40
8994;DHT22;4532;50.886;4.700;2022-08-18T01:27:44;22.00;98.30
8994;DHT22;4532;50.886;4.700;2022-08-18T01:30:15;22.10;98.40
8994;DHT22;4532;50.886;4.700;2022-08-18T01:32:44;22.10;98.40
8994;DHT22;4532;50.886;4.700;2022-08-18T01:35:20;22.10;98.50
8994;DHT22;4532;50.886;4.700;2022-08-18T01:37:48;22.10;98.50
8994;DHT22;4532;50.886;4.700;2022-08-18T01:40:21;22.10;98.50
8994;DHT22;4532;50.886;4.700;2022-08-18T01:43:14;22.10;98.60
8994;DHT22;4532;50.886;4.700;2022-08-18T01:45:46;22.10;98.60
8994;DHT22;4532;50.886;4.700;2022-08-18T01:48:15;22.20;98.60
8994;DHT22;4532;50.886;4.700;2022-08-18T01:50:43;22.20;98.70
8994;DHT22;4532;50.886;4.700;2022-08-18T01:53:16;22.20;98.80
8994;DHT22;4532;50.886;4.700;2022-08-18T01:55:47;22.20;98.80
8994;DHT22;4532;50.886;4.700;2022-08-18T01:58:17;22.20;98.80
8994;DHT22;4532;50.886;4.700;2022-08-18T02:00:46;22.20;98.80
8994;DHT22;4532;50.886;4.700;2022-08-18T02:03:18;22.20;98.80
8994;DHT22;4532;50.886;4.700;2022-08-18T02:05:47;22.20;98.80
8994;DHT22;4532;50.886;4.700;2022-08-18T02:08:15;22.20;98.90
8994;DHT22;4532;50.886;4.700;2022-08-18T02:10:42;22.20;98.90
8994;DHT22;4532;50.886;4.700;2022-08-18T02:13:12;22.20;98.90
8994;DHT22;4532;50.886;4.700;2022-08-18T02:15:42;22.20;98.90
8994;DHT22;4532;50.886;4.700;2022-08-18T02:18:16;22.20;98.80
8994;DHT22;4532;50.886;4.700;2022-08-18T02:21:12;22.30;99.00
8994;DHT22;4532;50.886;4.700;2022-08-18T02:23:47;22.30;99.10
8994;DHT22;4532;50.886;4.700;2022-08-18T02:26:20;22.30;99.10
8994;DHT22;4532;50.886;4.700;2022-08-18T02:28:48;22.30;99.00
8994;DHT22;4532;50.886;4.700;2022-08-18T02:31:19;22.30;99.10
8994;DHT22;4532;50.886;4.700;2022-08-18T02:33:47;22.30;99.10
8994;DHT22;4532;50.886;4.700;2022-08-18T02:36:20;22.30;99.10
8994;DHT22;4532;50.886;4.700;2022-08-18T02:38:51;22.30;99.40
8994;DHT22;4532;50.886;4.700;2022-08-18T02:41:26;22.30;99.20
8994;DHT22;4532;50.886;4.700;2022-08-18T02:43:56;22.30;99.20
8994;DHT22;4532;50.886;4.700;2022-08-18T02:46:25;22.30;99.20
8994;DHT22;4532;50.886;4.700;2022-08-18T02:48:58;22.20;99.20
8994;DHT22;4532;50.886;4.700;2022-08-18T02:51:26;22.30;99.20
8994;DHT22;4532;50.886;4.700;2022-08-18T02:53:53;22.30;99.30
8994;DHT22;4532;50.886;4.700;2022-08-18T02:56:22;22.30;99.30
8994;DHT22;4532;50.886;4.700;2022-08-18T02:59:14;22.30;99.30
8994;DHT22;4532;50.886;4.700;2022-08-18T03:01:47;22.30;99.30
8994;DHT22;4532;50.886;4.700;2022-08-18T03:04:24;22.30;99.40
8994;DHT22;4532;50.886;4.700;2022-08-18T03:06:58;22.30;99.40
8994;DHT22;4532;50.886;4.700;2022-08-18T03:09:31;22.30;99.40
8994;DHT22;4532;50.886;4.700;2022-08-18T03:11:59;22.30;99.30
8994;DHT22;4532;50.886;4.700;2022-08-18T03:14:26;22.40;99.30
8994;DHT22;4532;50.886;4.700;2022-08-18T03:16:54;22.40;99.40
8994;DHT22;4532;50.886;4.700;2022-08-18T03:19:27;22.40;99.40
8994;DHT22;4532;50.886;4.700;2022-08-18T03:22:06;22.30;99.40
8994;DHT22;4532;50.886;4.700;2022-08-18T03:24:57;22.40;99.40
8994;DHT22;4532;50.886;4.700;2022-08-18T03:27:26;22.40;99.50
8994;DHT22;4532;50.886;4.700;2022-08-18T03:29:56;22.40;99.30
8994;DHT22;4532;50.886;4.700;2022-08-18T03:32:27;22.40;99.40
8994;DHT22;4532;50.886;4.700;2022-08-18T03:34:58;22.40;99.60
8994;DHT22;4532;50.886;4.700;2022-08-18T03:37:28;22.30;99.50
8994;DHT22;4532;50.886;4.700;2022-08-18T03:39:59;22.30;99.50
8994;DHT22;4532;50.886;4.700;2022-08-18T03:42:28;22.30;99.50
8994;DHT22;4532;50.886;4.700;2022-08-18T03:44:58;22.30;99.30
8994;DHT22;4532;50.886;4.700;2022-08-18T03:47:48;22.40;99.40
8994;DHT22;4532;50.886;4.700;2022-08-18T03:50:18;22.40;99.60
8994;DHT22;4532;50.886;4.700;2022-08-18T03:52:48;22.40;99.60
8994;DHT22;4532;50.886;4.700;2022-08-18T03:55:21;22.40;99.60
8994;DHT22;4532;50.886;4.700;2022-08-18T03:57:51;22.40;99.70
8994;DHT22;4532;50.886;4.700;2022-08-18T04:00:24;22.40;99.70
8994;DHT22;4532;50.886;4.700;2022-08-18T04:02:53;22.40;99.70
8994;DHT22;4532;50.886;4.700;2022-08-18T04:05:23;22.40;99.70
8994;DHT22;4532;50.886;4.700;2022-08-18T04:07:53;22.40;99.80
8994;DHT22;4532;50.886;4.700;2022-08-18T04:10:20;22.40;99.60
8994;DHT22;4532;50.886;4.700;2022-08-18T04:12:47;22.40;99.60
8994;DHT22;4532;50.886;4.700;2022-08-18T04:15:15;22.40;99.90
8994;DHT22;4532;50.886;4.700;2022-08-18T04:17:45;22.50;99.70
8994;DHT22;4532;50.886;4.700;2022-08-18T04:20:30;22.50;99.60
8994;DHT22;4532;50.886;4.700;2022-08-18T04:22:59;22.40;99.60
8994;DHT22;4532;50.886;4.700;2022-08-18T04:25:29;22.40;99.60
8994;DHT22;4532;50.886;4.700;2022-08-18T04:28:06;22.40;99.60
8994;DHT22;4532;50.886;4.700;2022-08-18T04:30:33;22.40;99.60
8994;DHT22;4532;50.886;4.700;2022-08-18T04:33:06;22.40;99.60
8994;DHT22;4532;50.886;4.700;2022-08-18T04:35:34;22.40;99.80
8994;DHT22;4532;50.886;4.700;2022-08-18T04:38:06;22.30;99.60
8994;DHT22;4532;50.886;4.700;2022-08-18T04:40:33;22.30;99.70
8994;DHT22;4532;50.886;4.700;2022-08-18T04:43:04;22.30;99.80
8994;DHT22;4532;50.886;4.700;2022-08-18T04:45:31;22.30;99.60
8994;DHT22;4532;50.886;4.700;2022-08-18T04:47:58;22.30;99.60
8994;DHT22;4532;50.886;4.700;2022-08-18T04:50:28;22.30;99.70
8994;DHT22;4532;50.886;4.700;2022-08-18T04:52:55;22.20;99.80
8994;DHT22;4532;50.886;4.700;2022-08-18T04:55:48;22.20;99.80
8994;DHT22;4532;50.886;4.700;2022-08-18T04:58:18;22.20;99.90
8994;DHT22;4532;50.886;4.700;2022-08-18T05:00:59;22.20;99.80
8994;DHT22;4532;50.886;4.700;2022-08-18T05:03:28;22.30;99.90
8994;DHT22;4532;50.886;4.700;2022-08-18T05:05:57;22.30;99.80
8994;DHT22;4532;50.886;4.700;2022-08-18T05:08:29;22.30;99.80
8994;DHT22;4532;50.886;4.700;2022-08-18T05:11:01;22.30;99.90
8994;DHT22;4532;50.886;4.700;2022-08-18T05:13:30;22.30;99.90
8994;DHT22;4532;50.886;4.700;2022-08-18T05:15:59;22.30;99.90
8994;DHT22;4532;50.886;4.700;2022-08-18T05:18:45;22.30;99.90
8994;DHT22;4532;50.886;4.700;2022-08-18T05:21:12;22.30;99.90
8994;DHT22;4532;50.886;4.700;2022-08-18T05:23:47;22.30;99.90
8994;DHT22;4532;50.886;4.700;2022-08-18T05:26:16;22.30;99.90
8994;DHT22;4532;50.886;4.700;2022-08-18T05:28:46;22.30;99.90
8994;DHT22;4532;50.886;4.700;2022-08-18T05:31:19;22.30;99.90
8994;DHT22;4532;50.886;4.700;2022-08-18T05:33:54;22.30;99.90
8994;DHT22;4532;50.886;4.700;2022-08-18T05:41:48;22.30;99.90
8994;DHT22;4532;50.886;4.700;2022-08-18T05:44:26;22.30;99.90
8994;DHT22;4532;50.886;4.700;2022-08-18T05:46:58;22.30;99.90
8994;DHT22;4532;50.886;4.700;2022-08-18T05:49:33;22.30;99.90
8994;DHT22;4532;50.886;4.700;2022-08-18T05:52:26;22.30;99.90
8994;DHT22;4532;50.886;4.700;2022-08-18T05:55:01;22.40;99.90
8994;DHT22;4532;50.886;4.700;2022-08-18T05:58:02;22.30;99.90
8994;DHT22;4532;50.886;4.700;2022-08-18T06:00:37;22.40;99.90
8994;DHT22;4532;50.886;4.700;2022-08-18T06:03:23;22.40;99.90
8994;DHT22;4532;50.886;4.700;2022-08-18T06:06:00;22.40;99.90
8994;DHT22;4532;50.886;4.700;2022-08-18T06:08:36;22.40;99.90
8994;DHT22;4532;50.886;4.700;2022-08-18T06:11:09;22.40;99.90
8994;DHT22;4532;50.886;4.700;2022-08-18T06:13:48;22.40;99.90
8994;DHT22;4532;50.886;4.700;2022-08-18T06:30:40;22.40;99.90
8994;DHT22;4532;50.886;4.700;2022-08-18T06:35:56;22.40;99.90
8994;DHT22;4532;50.886;4.700;2022-08-18T06:38:39;22.40;99.90
8994;DHT22;4532;50.886;4.700;2022-08-18T06:44:10;22.50;99.90
8994;DHT22;4532;50.886;4.700;2022-08-18T06:52:39;22.50;99.90
8994;DHT22;4532;50.886;4.700;2022-08-18T06:55:30;22.50;99.90
8994;DHT22;4532;50.886;4.700;2022-08-18T06:58:03;22.50;99.90
8994;DHT22;4532;50.886;4.700;2022-08-18T07:00:34;22.60;99.90
8994;DHT22;4532;50.886;4.700;2022-08-18T07:03:15;22.60;99.90
8994;DHT22;4532;50.886;4.700;2022-08-18T07:08:44;22.70;99.90
8994;DHT22;4532;50.886;4.700;2022-08-18T07:13:56;22.70;99.90
8994;DHT22;4532;50.886;4.700;2022-08-18T07:16:44;22.80;99.90
8994;DHT22;4532;50.886;4.700;2022-08-18T07:19:29;22.80;99.90
8994;DHT22;4532;50.886;4.700;2022-08-18T07:22:06;22.80;99.90
8994;DHT22;4532;50.886;4.700;2022-08-18T07:24:55;22.90;99.90
8994;DHT22;4532;50.886;4.700;2022-08-18T07:28:00;22.90;99.90
8994;DHT22;4532;50.886;4.700;2022-08-18T07:30:38;23.00;99.90
8994;DHT22;4532;50.886;4.700;2022-08-18T07:33:25;23.00;99.90
8994;DHT22;4532;50.886;4.700;2022-08-18T07:36:00;23.10;99.90
8994;DHT22;4532;50.886;4.700;2022-08-18T07:38:39;23.20;99.90
8994;DHT22;4532;50.886;4.700;2022-08-18T07:41:18;23.30;99.90
8994;DHT22;4532;50.886;4.700;2022-08-18T07:44:02;23.40;99.90
8994;DHT22;4532;50.886;4.700;2022-08-18T07:46:55;23.40;99.90
8994;DHT22;4532;50.886;4.700;2022-08-18T07:49:36;23.40;99.90
8994;DHT22;4532;50.886;4.700;2022-08-18T07:52:35;23.50;99.90
8994;DHT22;4532;50.886;4.700;2022-08-18T07:55:33;23.50;99.90
8994;DHT22;4532;50.886;4.700;2022-08-18T08:01:37;23.70;99.90
8994;DHT22;4532;50.886;4.700;2022-08-18T08:04:22;23.80;99.90
8994;DHT22;4532;50.886;4.700;2022-08-18T08:07:04;23.80;99.90
8994;DHT22;4532;50.886;4.700;2022-08-18T08:13:00;23.90;99.90
8994;DHT22;4532;50.886;4.700;2022-08-18T08:21:14;23.90;99.90
8994;DHT22;4532;50.886;4.700;2022-08-18T08:23:54;23.90;99.90
8994;DHT22;4532;50.886;4.700;2022-08-18T08:31:56;23.90;99.90
8994;DHT22;4532;50.886;4.700;2022-08-18T08:37:19;23.90;99.90
8994;DHT22;4532;50.886;4.700;2022-08-18T08:40:04;23.90;99.90
8994;DHT22;4532;50.886;4.700;2022-08-18T08:42:57;23.90;99.90
8994;DHT22;4532;50.886;4.700;2022-08-18T08:45:33;23.90;99.90
8994;DHT22;4532;50.886;4.700;2022-08-18T08:48:13;23.80;99.90
8994;DHT22;4532;50.886;4.700;2022-08-18T08:51:11;23.80;99.90
8994;DHT22;4532;50.886;4.700;2022-08-18T08:53:46;23.80;99.90
8994;DHT22;4532;50.886;4.700;2022-08-18T08:56:20;23.80;99.90
8994;DHT22;4532;50.886;4.700;2022-08-18T09:01:40;23.80;99.90
8994;DHT22;4532;50.886;4.700;2022-08-18T09:10:14;23.70;99.90
8994;DHT22;4532;50.886;4.700;2022-08-18T09:12:55;23.80;99.90
8994;DHT22;4532;50.886;4.700;2022-08-18T09:21:13;24.00;99.90
8994;DHT22;4532;50.886;4.700;2022-08-18T09:23:52;24.00;99.90
8994;DHT22;4532;50.886;4.700;2022-08-18T09:26:42;24.00;99.90
8994;DHT22;4532;50.886;4.700;2022-08-18T09:29:23;24.10;99.90
8994;DHT22;4532;50.886;4.700;2022-08-18T09:37:30;24.20;99.90
8994;DHT22;4532;50.886;4.700;2022-08-18T09:43:52;24.30;99.90
8994;DHT22;4532;50.886;4.700;2022-08-18T09:54:30;24.50;99.90
8994;DHT22;4532;50.886;4.700;2022-08-18T09:57:14;24.60;99.90
8994;DHT22;4532;50.886;4.700;2022-08-18T10:05:27;24.80;99.90
8994;DHT22;4532;50.886;4.700;2022-08-18T10:11:01;24.80;99.90
8994;DHT22;4532;50.886;4.700;2022-08-18T10:22:09;25.00;99.90
8994;DHT22;4532;50.886;4.700;2022-08-18T10:24:54;25.00;99.90
8994;DHT22;4532;50.886;4.700;2022-08-18T10:27:49;25.10;99.90
8994;DHT22;4532;50.886;4.700;2022-08-18T10:30:44;25.10;99.90
8994;DHT22;4532;50.886;4.700;2022-08-18T10:34:03;25.20;99.90
8994;DHT22;4532;50.886;4.700;2022-08-18T10:42:26;25.30;99.90
8994;DHT22;4532;50.886;4.700;2022-08-18T10:53:50;25.30;99.20
8994;DHT22;4532;50.886;4.700;2022-08-18T10:59:16;25.40;99.40
8994;DHT22;4532;50.886;4.700;2022-08-18T11:02:35;25.30;99.60
8994;DHT22;4532;50.886;4.700;2022-08-18T11:05:06;25.40;99.80
8994;DHT22;4532;50.886;4.700;2022-08-18T11:07:36;25.40;99.80
8994;DHT22;4532;50.886;4.700;2022-08-18T11:10:21;25.60;99.80
8994;DHT22;4532;50.886;4.700;2022-08-18T11:18:50;25.60;99.50
8994;DHT22;4532;50.886;4.700;2022-08-18T11:21:54;25.70;99.40
8994;DHT22;4532;50.886;4.700;2022-08-18T11:24:28;25.70;99.60
8994;DHT22;4532;50.886;4.700;2022-08-18T11:27:16;25.70;99.50
8994;DHT22;4532;50.886;4.700;2022-08-18T11:29:46;25.70;99.60
8994;DHT22;4532;50.886;4.700;2022-08-18T11:32:28;25.70;99.60
8994;DHT22;4532;50.886;4.700;2022-08-18T11:43:15;25.80;98.70
8994;DHT22;4532;50.886;4.700;2022-08-18T11:45:57;25.80;98.80
8994;DHT22;4532;50.886;4.700;2022-08-18T11:51:22;25.90;99.00
8994;DHT22;4532;50.886;4.700;2022-08-18T11:54:00;26.00;98.80
8994;DHT22;4532;50.886;4.700;2022-08-18T11:56:35;26.00;99.00
8994;DHT22;4532;50.886;4.700;2022-08-18T11:59:05;26.10;99.20
8994;DHT22;4532;50.886;4.700;2022-08-18T12:04:36;26.20;99.40
8994;DHT22;4532;50.886;4.700;2022-08-18T12:07:13;26.20;99.30
8994;DHT22;4532;50.886;4.700;2022-08-18T12:12:50;26.40;99.30
8994;DHT22;4532;50.886;4.700;2022-08-18T12:15:30;26.50;99.40
8994;DHT22;4532;50.886;4.700;2022-08-18T12:18:15;26.60;99.40
8994;DHT22;4532;50.886;4.700;2022-08-18T12:20:56;26.70;99.30
8994;DHT22;4532;50.886;4.700;2022-08-18T12:23:24;26.70;99.20
8994;DHT22;4532;50.886;4.700;2022-08-18T12:25:54;26.80;98.00
8994;DHT22;4532;50.886;4.700;2022-08-18T12:28:21;26.80;97.80
8994;DHT22;4532;50.886;4.700;2022-08-18T12:30:54;26.70;97.50
8994;DHT22;4532;50.886;4.700;2022-08-18T12:33:26;26.70;97.90
8994;DHT22;4532;50.886;4.700;2022-08-18T12:36:13;26.70;97.90
8994;DHT22;4532;50.886;4.700;2022-08-18T12:38:42;26.70;98.10
8994;DHT22;4532;50.886;4.700;2022-08-18T12:41:23;26.70;97.90
8994;DHT22;4532;50.886;4.700;2022-08-18T12:43:50;26.80;97.70
8994;DHT22;4532;50.886;4.700;2022-08-18T12:46:25;26.80;98.00
8994;DHT22;4532;50.886;4.700;2022-08-18T12:48:53;26.80;98.10
8994;DHT22;4532;50.886;4.700;2022-08-18T12:51:23;26.80;98.00
8994;DHT22;4532;50.886;4.700;2022-08-18T12:53:56;26.80;98.10
8994;DHT22;4532;50.886;4.700;2022-08-18T12:56:49;26.80;98.00
8994;DHT22;4532;50.886;4.700;2022-08-18T12:59:19;26.80;97.70
8994;DHT22;4532;50.886;4.700;2022-08-18T13:01:50;26.90;98.10
8994;DHT22;4532;50.886;4.700;2022-08-18T13:04:30;26.90;98.10
8994;DHT22;4532;50.886;4.700;2022-08-18T13:06:59;26.90;98.20
8994;DHT22;4532;50.886;4.700;2022-08-18T13:09:34;27.00;98.30
8994;DHT22;4532;50.886;4.700;2022-08-18T13:12:20;27.00;98.40
8994;DHT22;4532;50.886;4.700;2022-08-18T13:14:50;27.10;98.50
8994;DHT22;4532;50.886;4.700;2022-08-18T13:17:21;27.20;98.60
8994;DHT22;4532;50.886;4.700;2022-08-18T13:20:06;27.20;98.70
8994;DHT22;4532;50.886;4.700;2022-08-18T13:22:40;27.30;98.70
8994;DHT22;4532;50.886;4.700;2022-08-18T13:25:14;27.40;98.70
8994;DHT22;4532;50.886;4.700;2022-08-18T13:28:02;27.40;98.60
8994;DHT22;4532;50.886;4.700;2022-08-18T13:30:32;27.50;98.70
8994;DHT22;4532;50.886;4.700;2022-08-18T13:33:02;27.50;98.60
8994;DHT22;4532;50.886;4.700;2022-08-18T13:35:52;27.50;98.10
8994;DHT22;4532;50.886;4.700;2022-08-18T13:38:22;27.50;98.20
8994;DHT22;4532;50.886;4.700;2022-08-18T13:40:59;27.50;97.90
8994;DHT22;4532;50.886;4.700;2022-08-18T13:43:43;27.50;98.20
8994;DHT22;4532;50.886;4.700;2022-08-18T13:46:17;27.50;98.30
8994;DHT22;4532;50.886;4.700;2022-08-18T13:48:50;27.50;98.10
8994;DHT22;4532;50.886;4.700;2022-08-18T13:51:22;27.50;98.20
8994;DHT22;4532;50.886;4.700;2022-08-18T13:53:51;27.50;98.20
8994;DHT22;4532;50.886;4.700;2022-08-18T13:56:39;27.60;98.10
8994;DHT22;4532;50.886;4.700;2022-08-18T13:59:07;27.60;97.10
8994;DHT22;4532;50.886;4.700;2022-08-18T14:01:36;27.60;97.60
8994;DHT22;4532;50.886;4.700;2022-08-18T14:04:20;27.50;97.60
8994;DHT22;4532;50.886;4.700;2022-08-18T14:06:50;27.60;97.90
8994;DHT22;4532;50.886;4.700;2022-08-18T14:09:25;27.60;97.80
8994;DHT22;4532;50.886;4.700;2022-08-18T14:12:05;27.70;97.50
8994;DHT22;4532;50.886;4.700;2022-08-18T14:14:41;27.70;96.90
8994;DHT22;4532;50.886;4.700;2022-08-18T14:17:12;27.60;96.10
8994;DHT22;4532;50.886;4.700;2022-08-18T14:19:40;27.60;96.70
8994;DHT22;4532;50.886;4.700;2022-08-18T14:22:25;27.60;96.00
8994;DHT22;4532;50.886;4.700;2022-08-18T14:25:14;27.60;96.00
8994;DHT22;4532;50.886;4.700;2022-08-18T14:28:02;27.60;96.50
8994;DHT22;4532;50.886;4.700;2022-08-18T14:30:30;27.50;96.60
8994;DHT22;4532;50.886;4.700;2022-08-18T14:33:02;27.50;96.40
8994;DHT22;4532;50.886;4.700;2022-08-18T14:35:32;27.50;96.50
8994;DHT22;4532;50.886;4.700;2022-08-18T14:38:19;27.60;96.40
8994;DHT22;4532;50.886;4.700;2022-08-18T14:40:49;27.70;96.20
8994;DHT22;4532;50.886;4.700;2022-08-18T14:43:18;27.70;96.00
8994;DHT22;4532;50.886;4.700;2022-08-18T14:45:53;27.70;96.70
8994;DHT22;4532;50.886;4.700;2022-08-18T14:48:24;27.70;96.80
8994;DHT22;4532;50.886;4.700;2022-08-18T14:50:55;27.80;96.40
8994;DHT22;4532;50.886;4.700;2022-08-18T14:53:27;27.90;96.30
8994;DHT22;4532;50.886;4.700;2022-08-18T14:56:00;27.90;95.60
8994;DHT22;4532;50.886;4.700;2022-08-18T14:58:31;27.90;96.40
8994;DHT22;4532;50.886;4.700;2022-08-18T15:01:02;27.90;95.50
8994;DHT22;4532;50.886;4.700;2022-08-18T15:03:37;27.90;96.10
8994;DHT22;4532;50.886;4.700;2022-08-18T15:06:07;27.90;96.40
8994;DHT22;4532;50.886;4.700;2022-08-18T15:08:43;27.90;96.60
8994;DHT22;4532;50.886;4.700;2022-08-18T15:11:13;27.90;96.70
8994;DHT22;4532;50.886;4.700;2022-08-18T15:13:44;28.00;96.80
8994;DHT22;4532;50.886;4.700;2022-08-18T15:16:14;28.10;96.80
8994;DHT22;4532;50.886;4.700;2022-08-18T15:18:46;28.10;96.90
8994;DHT22;4532;50.886;4.700;2022-08-18T15:21:16;28.10;97.00
8994;DHT22;4532;50.886;4.700;2022-08-18T15:24:09;28.20;97.00
8994;DHT22;4532;50.886;4.700;2022-08-18T15:27:00;28.30;96.90
8994;DHT22;4532;50.886;4.700;2022-08-18T15:29:32;28.30;96.20
8994;DHT22;4532;50.886;4.700;2022-08-18T15:32:00;28.40;96.60
8994;DHT22;4532;50.886;4.700;2022-08-18T15:34:37;28.40;96.80
8994;DHT22;4532;50.886;4.700;2022-08-18T15:37:22;28.50;96.50
8994;DHT22;4532;50.886;4.700;2022-08-18T15:40:06;28.50;96.90
8994;DHT22;4532;50.886;4.700;2022-08-18T15:42:59;28.50;95.70
8994;DHT22;4532;50.886;4.700;2022-08-18T15:45:33;28.60;96.80
8994;DHT22;4532;50.886;4.700;2022-08-18T15:48:03;28.70;96.50
8994;DHT22;4532;50.886;4.700;2022-08-18T15:50:35;28.70;96.60
8994;DHT22;4532;50.886;4.700;2022-08-18T15:53:05;28.70;96.60
8994;DHT22;4532;50.886;4.700;2022-08-18T15:55:38;28.70;96.60
8994;DHT22;4532;50.886;4.700;2022-08-18T15:58:07;28.80;96.80
8994;DHT22;4532;50.886;4.700;2022-08-18T16:00:45;28.80;96.60
8994;DHT22;4532;50.886;4.700;2022-08-18T16:03:15;28.80;96.70
8994;DHT22;4532;50.886;4.700;2022-08-18T16:06:00;28.90;96.70
8994;DHT22;4532;50.886;4.700;2022-08-18T16:08:33;29.00;95.80
8994;DHT22;4532;50.886;4.700;2022-08-18T16:11:06;28.90;95.10
8994;DHT22;4532;50.886;4.700;2022-08-18T16:13:34;28.90;94.60
8994;DHT22;4532;50.886;4.700;2022-08-18T16:16:11;28.90;95.50
8994;DHT22;4532;50.886;4.700;2022-08-18T16:18:41;28.90;95.80
8994;DHT22;4532;50.886;4.700;2022-08-18T16:21:14;28.90;95.90
8994;DHT22;4532;50.886;4.700;2022-08-18T16:23:48;28.90;96.10
8994;DHT22;4532;50.886;4.700;2022-08-18T16:26:17;29.00;96.10
8994;DHT22;4532;50.886;4.700;2022-08-18T16:28:50;29.00;95.80
8994;DHT22;4532;50.886;4.700;2022-08-18T16:31:20;29.00;95.70
8994;DHT22;4532;50.886;4.700;2022-08-18T16:33:55;29.00;95.30
8994;DHT22;4532;50.886;4.700;2022-08-18T16:36:26;28.90;95.30
8994;DHT22;4532;50.886;4.700;2022-08-18T16:38:56;28.90;94.90
8994;DHT22;4532;50.886;4.700;2022-08-18T16:41:27;28.90;94.40
8994;DHT22;4532;50.886;4.700;2022-08-18T16:43:54;28.90;94.90
8994;DHT22;4532;50.886;4.700;2022-08-18T16:46:27;29.00;95.20
8994;DHT22;4532;50.886;4.700;2022-08-18T16:48:57;29.00;95.40
8994;DHT22;4532;50.886;4.700;2022-08-18T16:51:27;29.00;95.00
8994;DHT22;4532;50.886;4.700;2022-08-18T16:53:57;29.00;95.10
8994;DHT22;4532;50.886;4.700;2022-08-18T16:56:27;29.00;95.40
8994;DHT22;4532;50.886;4.700;2022-08-18T16:58:57;29.00;94.80
8994;DHT22;4532;50.886;4.700;2022-08-18T17:01:42;29.00;95.50
8994;DHT22;4532;50.886;4.700;2022-08-18T17:04:30;29.10;95.30
8994;DHT22;4532;50.886;4.700;2022-08-18T17:07:01;29.20;95.00
8994;DHT22;4532;50.886;4.700;2022-08-18T17:09:32;29.20;94.80
8994;DHT22;4532;50.886;4.700;2022-08-18T17:12:05;29.20;94.80
8994;DHT22;4532;50.886;4.700;2022-08-18T17:14:32;29.20;94.60
8994;DHT22;4532;50.886;4.700;2022-08-18T17:17:05;29.30;95.20
8994;DHT22;4532;50.886;4.700;2022-08-18T17:19:34;29.30;94.90
8994;DHT22;4532;50.886;4.700;2022-08-18T17:22:07;29.30;95.00
8994;DHT22;4532;50.886;4.700;2022-08-18T17:24:35;29.30;95.10
8994;DHT22;4532;50.886;4.700;2022-08-18T17:27:08;29.30;94.90
8994;DHT22;4532;50.886;4.700;2022-08-18T17:32:25;29.40;94.90
8994;DHT22;4532;50.886;4.700;2022-08-18T17:34:59;29.40;95.10
8994;DHT22;4532;50.886;4.700;2022-08-18T17:37:30;29.40;94.30
8994;DHT22;4532;50.886;4.700;2022-08-18T17:40:17;29.30;95.00
8994;DHT22;4532;50.886;4.700;2022-08-18T17:42:46;29.40;94.60
8994;DHT22;4532;50.886;4.700;2022-08-18T17:45:22;29.30;95.00
8994;DHT22;4532;50.886;4.700;2022-08-18T17:48:15;29.30;95.00
8994;DHT22;4532;50.886;4.700;2022-08-18T17:50:47;29.30;95.00
8994;DHT22;4532;50.886;4.700;2022-08-18T17:53:34;29.30;94.90
8994;DHT22;4532;50.886;4.700;2022-08-18T17:58:57;29.30;95.00
8994;DHT22;4532;50.886;4.700;2022-08-18T18:01:26;29.20;94.90
8994;DHT22;4532;50.886;4.700;2022-08-18T18:03:57;29.20;93.80
8994;DHT22;4532;50.886;4.700;2022-08-18T18:11:53;29.00;93.60
8994;DHT22;4532;50.886;4.700;2022-08-18T18:17:12;28.90;94.00
8994;DHT22;4532;50.886;4.700;2022-08-18T18:19:43;28.80;93.80
8994;DHT22;4532;50.886;4.700;2022-08-18T18:22:23;28.70;94.00
8994;DHT22;4532;50.886;4.700;2022-08-18T18:24:57;28.70;94.00
8994;DHT22;4532;50.886;4.700;2022-08-18T18:33:03;28.60;94.10
8994;DHT22;4532;50.886;4.700;2022-08-18T18:38:30;28.40;93.70
8994;DHT22;4532;50.886;4.700;2022-08-18T18:40:59;28.40;93.60
8994;DHT22;4532;50.886;4.700;2022-08-18T18:43:36;28.30;93.80
8994;DHT22;4532;50.886;4.700;2022-08-18T18:51:37;28.10;94.00
8994;DHT22;4532;50.886;4.700;2022-08-18T19:02:20;27.90;94.10
8994;DHT22;4532;50.886;4.700;2022-08-18T19:05:25;27.90;94.00
8994;DHT22;4532;50.886;4.700;2022-08-18T19:11:05;27.80;94.00
8994;DHT22;4532;50.886;4.700;2022-08-18T19:13:43;27.70;93.90
8994;DHT22;4532;50.886;4.700;2022-08-18T19:16:40;27.70;93.90
8994;DHT22;4532;50.886;4.700;2022-08-18T19:19:34;27.60;94.10
8994;DHT22;4532;50.886;4.700;2022-08-18T19:22:26;27.50;94.10
8994;DHT22;4532;50.886;4.700;2022-08-18T19:25:26;27.50;94.20
8994;DHT22;4532;50.886;4.700;2022-08-18T19:28:16;27.40;94.20
8994;DHT22;4532;50.886;4.700;2022-08-18T19:30:46;27.40;94.30
8994;DHT22;4532;50.886;4.700;2022-08-18T19:33:22;27.30;94.20
8994;DHT22;4532;50.886;4.700;2022-08-18T19:36:05;27.20;94.20
8994;DHT22;4532;50.886;4.700;2022-08-18T19:39:04;27.20;94.20
8994;DHT22;4532;50.886;4.700;2022-08-18T19:45:02;27.10;94.30
8994;DHT22;4532;50.886;4.700;2022-08-18T19:56:02;26.90;94.40
8994;DHT22;4532;50.886;4.700;2022-08-18T19:58:44;26.90;94.40
8994;DHT22;4532;50.886;4.700;2022-08-18T20:01:56;26.80;94.30
8994;DHT22;4532;50.886;4.700;2022-08-18T20:05:01;26.70;94.70
8994;DHT22;4532;50.886;4.700;2022-08-18T20:13:36;26.50;94.40
8994;DHT22;4532;50.886;4.700;2022-08-18T20:16:31;26.50;94.30
8994;DHT22;4532;50.886;4.700;2022-08-18T20:19:40;26.50;94.40
8994;DHT22;4532;50.886;4.700;2022-08-18T20:25:01;26.40;94.60
8994;DHT22;4532;50.886;4.700;2022-08-18T20:27:38;26.30;94.60